sensor_id;sensor_type;location;lat;lon;timestamp;P1;durP1;ratioP1;P2;durP2;ratioP2
8803;SDS011;4438;50.890;4.726;2022-10-15T00:00:52;15.07;;;13.67;;
8803;SDS011;4438;50.890;4.726;2022-10-15T00:03:18;14.93;;;13.63;;
8803;SDS011;4438;50.890;4.726;2022-10-15T00:05:44;15.00;;;13.60;;
8803;SDS011;4438;50.890;4.726;2022-10-15T00:08:10;13.30;;;12.10;;
8803;SDS011;4438;50.890;4.726;2022-10-15T00:10:37;15.77;;;14.23;;
8803;SDS011;4438;50.890;4.726;2022-10-15T00:13:03;14.13;;;12.83;;
8803;SDS011;4438;50.890;4.726;2022-10-15T00:15:30;15.77;;;14.17;;
8803;SDS011;4438;50.890;4.726;2022-10-15T00:17:56;14.70;;;13.30;;
8803;SDS011;4438;50.890;4.726;2022-10-15T00:20:22;14.83;;;13.53;;
8803;SDS011;4438;50.890;4.726;2022-10-15T00:22:48;16.70;;;15.10;;
8803;SDS011;4438;50.890;4.726;2022-10-15T00:25:15;18.70;;;16.57;;
8803;SDS011;4438;50.890;4.726;2022-10-15T00:27:41;17.70;;;16.10;;
8803;SDS011;4438;50.890;4.726;2022-10-15T00:30:07;16.80;;;15.10;;
8803;SDS011;4438;50.890;4.726;2022-10-15T00:32:33;18.93;;;17.13;;
8803;SDS011;4438;50.890;4.726;2022-10-15T00:34:59;19.87;;;17.90;;
8803;SDS011;4438;50.890;4.726;2022-10-15T00:37:25;18.73;;;17.03;;
8803;SDS011;4438;50.890;4.726;2022-10-15T00:39:51;20.03;;;18.03;;
8803;SDS011;4438;50.890;4.726;2022-10-15T00:42:18;22.90;;;20.70;;
8803;SDS011;4438;50.890;4.726;2022-10-15T00:47:12;24.13;;;21.83;;
8803;SDS011;4438;50.890;4.726;2022-10-15T00:49:40;24.57;;;22.07;;
8803;SDS011;4438;50.890;4.726;2022-10-15T00:52:18;24.73;;;22.33;;
8803;SDS011;4438;50.890;4.726;2022-10-15T00:54:50;25.17;;;22.67;;
8803;SDS011;4438;50.890;4.726;2022-10-15T00:57:17;23.97;;;21.57;;
8803;SDS011;4438;50.890;4.726;2022-10-15T00:59:46;25.97;;;23.47;;
8803;SDS011;4438;50.890;4.726;2022-10-15T01:02:14;23.87;;;21.57;;
8803;SDS011;4438;50.890;4.726;2022-10-15T01:04:42;23.00;;;20.77;;
8803;SDS011;4438;50.890;4.726;2022-10-15T01:07:08;25.17;;;22.53;;
8803;SDS011;4438;50.890;4.726;2022-10-15T01:09:34;25.17;;;22.70;;
8803;SDS011;4438;50.890;4.726;2022-10-15T01:12:00;24.60;;;22.10;;
8803;SDS011;4438;50.890;4.726;2022-10-15T01:14:36;25.30;;;22.70;;
8803;SDS011;4438;50.890;4.726;2022-10-15T01:20:25;24.60;;;22.10;;
8803;SDS011;4438;50.890;4.726;2022-10-15T01:27:44;24.93;;;22.43;;
8803;SDS011;4438;50.890;4.726;2022-10-15T01:30:46;26.47;;;23.77;;
8803;SDS011;4438;50.890;4.726;2022-10-15T01:38:13;26.47;;;23.83;;
8803;SDS011;4438;50.890;4.726;2022-10-15T01:40:45;26.43;;;23.67;;
8803;SDS011;4438;50.890;4.726;2022-10-15T01:43:14;26.87;;;24.17;;
8803;SDS011;4438;50.890;4.726;2022-10-15T01:45:44;27.17;;;24.27;;
8803;SDS011;4438;50.890;4.726;2022-10-15T01:48:11;26.13;;;23.13;;
8803;SDS011;4438;50.890;4.726;2022-10-15T01:50:39;27.50;;;24.60;;
8803;SDS011;4438;50.890;4.726;2022-10-15T01:53:06;26.13;;;23.43;;
8803;SDS011;4438;50.890;4.726;2022-10-15T01:55:33;27.70;;;24.73;;
8803;SDS011;4438;50.890;4.726;2022-10-15T01:58:01;26.23;;;23.53;;
8803;SDS011;4438;50.890;4.726;2022-10-15T02:00:27;28.33;;;25.43;;
8803;SDS011;4438;50.890;4.726;2022-10-15T02:02:57;26.57;;;23.77;;
8803;SDS011;4438;50.890;4.726;2022-10-15T02:05:25;28.20;;;25.20;;
8803;SDS011;4438;50.890;4.726;2022-10-15T02:10:32;25.23;;;22.60;;
8803;SDS011;4438;50.890;4.726;2022-10-15T02:18:27;29.50;;;26.33;;
8803;SDS011;4438;50.890;4.726;2022-10-15T02:20:54;27.87;;;25.07;;
8803;SDS011;4438;50.890;4.726;2022-10-15T02:23:33;28.77;;;25.77;;
8803;SDS011;4438;50.890;4.726;2022-10-15T02:26:01;29.90;;;25.97;;
8803;SDS011;4438;50.890;4.726;2022-10-15T02:28:29;31.93;;;27.27;;
8803;SDS011;4438;50.890;4.726;2022-10-15T02:30:55;28.03;;;25.10;;
8803;SDS011;4438;50.890;4.726;2022-10-15T02:33:22;27.57;;;24.70;;
8803;SDS011;4438;50.890;4.726;2022-10-15T02:35:49;29.80;;;26.60;;
8803;SDS011;4438;50.890;4.726;2022-10-15T02:38:16;28.37;;;24.97;;
8803;SDS011;4438;50.890;4.726;2022-10-15T02:40:44;26.63;;;23.80;;
8803;SDS011;4438;50.890;4.726;2022-10-15T02:43:13;28.67;;;24.47;;
8803;SDS011;4438;50.890;4.726;2022-10-15T02:45:39;25.80;;;23.10;;
8803;SDS011;4438;50.890;4.726;2022-10-15T02:48:06;25.83;;;23.13;;
8803;SDS011;4438;50.890;4.726;2022-10-15T02:50:32;28.60;;;24.30;;
8803;SDS011;4438;50.890;4.726;2022-10-15T02:52:58;25.40;;;22.67;;
8803;SDS011;4438;50.890;4.726;2022-10-15T02:55:24;25.03;;;22.20;;
8803;SDS011;4438;50.890;4.726;2022-10-15T02:57:51;25.27;;;22.57;;
8803;SDS011;4438;50.890;4.726;2022-10-15T03:00:17;24.97;;;22.20;;
8803;SDS011;4438;50.890;4.726;2022-10-15T03:02:43;26.40;;;23.07;;
8803;SDS011;4438;50.890;4.726;2022-10-15T03:05:09;28.57;;;23.53;;
8803;SDS011;4438;50.890;4.726;2022-10-15T03:07:36;26.33;;;23.47;;
8803;SDS011;4438;50.890;4.726;2022-10-15T03:10:02;26.97;;;23.57;;
8803;SDS011;4438;50.890;4.726;2022-10-15T03:12:28;28.37;;;22.63;;
8803;SDS011;4438;50.890;4.726;2022-10-15T03:14:54;25.80;;;22.90;;
8803;SDS011;4438;50.890;4.726;2022-10-15T03:17:20;25.77;;;22.27;;
8803;SDS011;4438;50.890;4.726;2022-10-15T03:19:46;28.83;;;22.67;;
8803;SDS011;4438;50.890;4.726;2022-10-15T03:22:12;26.13;;;20.97;;
8803;SDS011;4438;50.890;4.726;2022-10-15T03:24:38;26.33;;;22.50;;
8803;SDS011;4438;50.890;4.726;2022-10-15T03:27:05;24.73;;;20.70;;
8803;SDS011;4438;50.890;4.726;2022-10-15T03:29:31;25.80;;;20.50;;
8803;SDS011;4438;50.890;4.726;2022-10-15T03:31:57;23.43;;;20.57;;
8803;SDS011;4438;50.890;4.726;2022-10-15T03:34:23;21.80;;;18.73;;
8803;SDS011;4438;50.890;4.726;2022-10-15T03:36:49;25.10;;;21.17;;
8803;SDS011;4438;50.890;4.726;2022-10-15T03:39:15;22.30;;;19.63;;
8803;SDS011;4438;50.890;4.726;2022-10-15T03:41:41;23.67;;;20.03;;
8803;SDS011;4438;50.890;4.726;2022-10-15T03:44:08;24.00;;;20.70;;
8803;SDS011;4438;50.890;4.726;2022-10-15T03:46:35;24.10;;;20.53;;
8803;SDS011;4438;50.890;4.726;2022-10-15T03:49:01;24.63;;;20.30;;
8803;SDS011;4438;50.890;4.726;2022-10-15T03:51:27;25.53;;;19.90;;
8803;SDS011;4438;50.890;4.726;2022-10-15T03:53:53;24.47;;;19.27;;
8803;SDS011;4438;50.890;4.726;2022-10-15T03:56:19;25.30;;;20.03;;
8803;SDS011;4438;50.890;4.726;2022-10-15T03:58:45;23.13;;;20.57;;
8803;SDS011;4438;50.890;4.726;2022-10-15T04:01:13;23.33;;;20.23;;
8803;SDS011;4438;50.890;4.726;2022-10-15T04:03:39;23.17;;;19.27;;
8803;SDS011;4438;50.890;4.726;2022-10-15T04:06:06;26.07;;;20.90;;
8803;SDS011;4438;50.890;4.726;2022-10-15T04:08:32;23.50;;;19.53;;
8803;SDS011;4438;50.890;4.726;2022-10-15T04:10:58;23.63;;;18.43;;
8803;SDS011;4438;50.890;4.726;2022-10-15T04:13:27;19.10;;;16.70;;
8803;SDS011;4438;50.890;4.726;2022-10-15T04:15:54;21.60;;;19.27;;
8803;SDS011;4438;50.890;4.726;2022-10-15T04:18:20;22.07;;;17.83;;
8803;SDS011;4438;50.890;4.726;2022-10-15T04:20:47;21.03;;;18.80;;
8803;SDS011;4438;50.890;4.726;2022-10-15T04:23:13;20.20;;;17.97;;
8803;SDS011;4438;50.890;4.726;2022-10-15T04:25:39;20.30;;;18.20;;
8803;SDS011;4438;50.890;4.726;2022-10-15T04:28:05;19.67;;;16.80;;
8803;SDS011;4438;50.890;4.726;2022-10-15T04:30:31;18.50;;;16.50;;
8803;SDS011;4438;50.890;4.726;2022-10-15T04:32:57;18.60;;;16.60;;
8803;SDS011;4438;50.890;4.726;2022-10-15T04:35:23;18.20;;;16.10;;
8803;SDS011;4438;50.890;4.726;2022-10-15T04:37:50;18.07;;;16.17;;
8803;SDS011;4438;50.890;4.726;2022-10-15T04:40:16;18.23;;;16.37;;
8803;SDS011;4438;50.890;4.726;2022-10-15T04:42:42;17.47;;;15.57;;
8803;SDS011;4438;50.890;4.726;2022-10-15T04:45:09;17.17;;;14.50;;
8803;SDS011;4438;50.890;4.726;2022-10-15T04:47:35;15.67;;;14.07;;
8803;SDS011;4438;50.890;4.726;2022-10-15T04:50:01;16.07;;;14.47;;
8803;SDS011;4438;50.890;4.726;2022-10-15T04:52:27;15.50;;;13.90;;
8803;SDS011;4438;50.890;4.726;2022-10-15T04:54:53;15.93;;;14.07;;
8803;SDS011;4438;50.890;4.726;2022-10-15T04:57:19;16.77;;;14.97;;
8803;SDS011;4438;50.890;4.726;2022-10-15T04:59:45;17.57;;;15.13;;
8803;SDS011;4438;50.890;4.726;2022-10-15T05:02:11;17.07;;;15.17;;
8803;SDS011;4438;50.890;4.726;2022-10-15T05:04:37;16.97;;;15.13;;
8803;SDS011;4438;50.890;4.726;2022-10-15T05:07:04;17.20;;;15.33;;
8803;SDS011;4438;50.890;4.726;2022-10-15T05:09:30;17.43;;;15.63;;
8803;SDS011;4438;50.890;4.726;2022-10-15T05:11:56;18.87;;;16.53;;
8803;SDS011;4438;50.890;4.726;2022-10-15T05:14:22;19.97;;;16.47;;
8803;SDS011;4438;50.890;4.726;2022-10-15T05:16:48;20.67;;;16.50;;
8803;SDS011;4438;50.890;4.726;2022-10-15T05:19:14;18.13;;;15.67;;
8803;SDS011;4438;50.890;4.726;2022-10-15T05:21:41;19.83;;;17.67;;
8803;SDS011;4438;50.890;4.726;2022-10-15T05:24:08;19.33;;;16.40;;
8803;SDS011;4438;50.890;4.726;2022-10-15T05:26:35;22.83;;;17.40;;
8803;SDS011;4438;50.890;4.726;2022-10-15T05:29:01;20.03;;;16.77;;
8803;SDS011;4438;50.890;4.726;2022-10-15T05:31:28;19.00;;;15.80;;
8803;SDS011;4438;50.890;4.726;2022-10-15T05:33:55;17.60;;;15.67;;
8803;SDS011;4438;50.890;4.726;2022-10-15T05:36:22;18.23;;;15.70;;
8803;SDS011;4438;50.890;4.726;2022-10-15T05:38:52;18.80;;;14.83;;
8803;SDS011;4438;50.890;4.726;2022-10-15T05:41:19;17.83;;;14.03;;
8803;SDS011;4438;50.890;4.726;2022-10-15T05:43:48;19.07;;;14.00;;
8803;SDS011;4438;50.890;4.726;2022-10-15T05:46:15;16.60;;;13.97;;
8803;SDS011;4438;50.890;4.726;2022-10-15T05:48:41;17.73;;;13.37;;
8803;SDS011;4438;50.890;4.726;2022-10-15T05:51:11;16.10;;;12.63;;
8803;SDS011;4438;50.890;4.726;2022-10-15T05:53:37;16.70;;;13.23;;
8803;SDS011;4438;50.890;4.726;2022-10-15T05:56:04;14.67;;;11.53;;
8803;SDS011;4438;50.890;4.726;2022-10-15T05:58:32;13.77;;;11.73;;
8803;SDS011;4438;50.890;4.726;2022-10-15T06:01:00;15.43;;;11.63;;
8803;SDS011;4438;50.890;4.726;2022-10-15T06:03:26;14.57;;;10.97;;
8803;SDS011;4438;50.890;4.726;2022-10-15T06:05:52;14.70;;;11.23;;
8803;SDS011;4438;50.890;4.726;2022-10-15T06:08:19;13.20;;;10.80;;
8803;SDS011;4438;50.890;4.726;2022-10-15T06:10:45;14.20;;;10.57;;
8803;SDS011;4438;50.890;4.726;2022-10-15T06:13:12;13.17;;;10.43;;
8803;SDS011;4438;50.890;4.726;2022-10-15T06:15:42;11.87;;;9.23;;
8803;SDS011;4438;50.890;4.726;2022-10-15T06:18:09;10.80;;;9.40;;
8803;SDS011;4438;50.890;4.726;2022-10-15T06:20:35;11.47;;;9.50;;
8803;SDS011;4438;50.890;4.726;2022-10-15T06:23:02;11.70;;;8.93;;
8803;SDS011;4438;50.890;4.726;2022-10-15T06:25:28;10.43;;;8.90;;
8803;SDS011;4438;50.890;4.726;2022-10-15T06:27:54;9.97;;;8.20;;
8803;SDS011;4438;50.890;4.726;2022-10-15T06:30:20;10.47;;;8.27;;
8803;SDS011;4438;50.890;4.726;2022-10-15T06:32:47;8.67;;;7.23;;
8803;SDS011;4438;50.890;4.726;2022-10-15T06:35:13;8.50;;;7.17;;
8803;SDS011;4438;50.890;4.726;2022-10-15T06:37:39;8.63;;;7.30;;
8803;SDS011;4438;50.890;4.726;2022-10-15T06:40:05;7.83;;;6.93;;
8803;SDS011;4438;50.890;4.726;2022-10-15T06:42:32;8.40;;;6.53;;
8803;SDS011;4438;50.890;4.726;2022-10-15T06:44:58;7.53;;;6.50;;
8803;SDS011;4438;50.890;4.726;2022-10-15T06:47:24;7.10;;;6.33;;
8803;SDS011;4438;50.890;4.726;2022-10-15T06:49:50;7.43;;;6.37;;
8803;SDS011;4438;50.890;4.726;2022-10-15T06:52:16;8.03;;;5.80;;
8803;SDS011;4438;50.890;4.726;2022-10-15T06:54:42;6.63;;;5.50;;
8803;SDS011;4438;50.890;4.726;2022-10-15T06:57:08;6.40;;;5.60;;
8803;SDS011;4438;50.890;4.726;2022-10-15T06:59:34;6.60;;;5.50;;
8803;SDS011;4438;50.890;4.726;2022-10-15T07:02:00;7.37;;;5.60;;
8803;SDS011;4438;50.890;4.726;2022-10-15T07:04:27;7.37;;;5.83;;
8803;SDS011;4438;50.890;4.726;2022-10-15T07:06:53;6.23;;;5.37;;
8803;SDS011;4438;50.890;4.726;2022-10-15T07:09:19;6.80;;;5.40;;
8803;SDS011;4438;50.890;4.726;2022-10-15T07:11:45;6.00;;;5.43;;
8803;SDS011;4438;50.890;4.726;2022-10-15T07:14:11;8.13;;;5.50;;
8803;SDS011;4438;50.890;4.726;2022-10-15T07:16:37;6.60;;;5.97;;
8803;SDS011;4438;50.890;4.726;2022-10-15T07:19:04;6.03;;;5.43;;
8803;SDS011;4438;50.890;4.726;2022-10-15T07:21:30;5.80;;;5.07;;
8803;SDS011;4438;50.890;4.726;2022-10-15T07:23:56;6.33;;;5.73;;
8803;SDS011;4438;50.890;4.726;2022-10-15T07:26:23;7.93;;;5.07;;
8803;SDS011;4438;50.890;4.726;2022-10-15T07:28:49;5.73;;;5.23;;
8803;SDS011;4438;50.890;4.726;2022-10-15T07:31:15;5.50;;;5.00;;
8803;SDS011;4438;50.890;4.726;2022-10-15T07:33:41;5.37;;;4.87;;
8803;SDS011;4438;50.890;4.726;2022-10-15T07:36:08;5.97;;;4.90;;
8803;SDS011;4438;50.890;4.726;2022-10-15T07:38:35;5.43;;;4.93;;
8803;SDS011;4438;50.890;4.726;2022-10-15T07:41:02;5.30;;;4.80;;
8803;SDS011;4438;50.890;4.726;2022-10-15T07:43:28;5.20;;;4.80;;
8803;SDS011;4438;50.890;4.726;2022-10-15T07:45:54;5.57;;;5.00;;
8803;SDS011;4438;50.890;4.726;2022-10-15T07:48:21;5.67;;;5.13;;
8803;SDS011;4438;50.890;4.726;2022-10-15T07:50:52;5.57;;;5.07;;
8803;SDS011;4438;50.890;4.726;2022-10-15T07:53:18;5.30;;;4.80;;
8803;SDS011;4438;50.890;4.726;2022-10-15T07:55:44;5.40;;;4.90;;
8803;SDS011;4438;50.890;4.726;2022-10-15T07:58:10;5.87;;;5.23;;
8803;SDS011;4438;50.890;4.726;2022-10-15T08:00:36;5.17;;;4.57;;
8803;SDS011;4438;50.890;4.726;2022-10-15T08:03:05;5.17;;;4.63;;
8803;SDS011;4438;50.890;4.726;2022-10-15T08:05:32;5.13;;;4.60;;
8803;SDS011;4438;50.890;4.726;2022-10-15T08:07:58;4.40;;;4.00;;
8803;SDS011;4438;50.890;4.726;2022-10-15T08:10:25;4.67;;;4.10;;
8803;SDS011;4438;50.890;4.726;2022-10-15T08:12:51;3.90;;;3.60;;
8803;SDS011;4438;50.890;4.726;2022-10-15T08:15:17;4.30;;;3.90;;
8803;SDS011;4438;50.890;4.726;2022-10-15T08:17:43;3.60;;;3.30;;
8803;SDS011;4438;50.890;4.726;2022-10-15T08:20:10;3.40;;;3.10;;
8803;SDS011;4438;50.890;4.726;2022-10-15T08:22:36;2.73;;;2.53;;
8803;SDS011;4438;50.890;4.726;2022-10-15T08:25:02;2.60;;;2.40;;
8803;SDS011;4438;50.890;4.726;2022-10-15T08:27:28;2.90;;;2.60;;
8803;SDS011;4438;50.890;4.726;2022-10-15T08:29:54;2.60;;;2.40;;
8803;SDS011;4438;50.890;4.726;2022-10-15T08:32:21;3.37;;;2.40;;
8803;SDS011;4438;50.890;4.726;2022-10-15T08:34:47;2.27;;;2.07;;
8803;SDS011;4438;50.890;4.726;2022-10-15T08:37:13;2.27;;;2.10;;
8803;SDS011;4438;50.890;4.726;2022-10-15T08:39:39;2.03;;;1.83;;
8803;SDS011;4438;50.890;4.726;2022-10-15T08:42:05;2.00;;;1.90;;
8803;SDS011;4438;50.890;4.726;2022-10-15T08:47:04;2.37;;;1.70;;
8803;SDS011;4438;50.890;4.726;2022-10-15T08:49:41;1.60;;;1.50;;
8803;SDS011;4438;50.890;4.726;2022-10-15T08:52:15;1.53;;;1.43;;
8803;SDS011;4438;50.890;4.726;2022-10-15T08:54:42;1.70;;;1.60;;
8803;SDS011;4438;50.890;4.726;2022-10-15T08:57:10;1.60;;;1.50;;
8803;SDS011;4438;50.890;4.726;2022-10-15T08:59:48;1.50;;;1.40;;
8803;SDS011;4438;50.890;4.726;2022-10-15T09:07:41;1.63;;;1.30;;
8803;SDS011;4438;50.890;4.726;2022-10-15T09:10:15;1.30;;;1.20;;
8803;SDS011;4438;50.890;4.726;2022-10-15T09:12:45;1.53;;;1.33;;
8803;SDS011;4438;50.890;4.726;2022-10-15T09:15:16;1.17;;;1.17;;
8803;SDS011;4438;50.890;4.726;2022-10-15T09:17:43;1.47;;;1.20;;
8803;SDS011;4438;50.890;4.726;2022-10-15T09:20:16;0.90;;;0.90;;
8803;SDS011;4438;50.890;4.726;2022-10-15T09:22:43;1.17;;;1.10;;
8803;SDS011;4438;50.890;4.726;2022-10-15T09:25:17;1.20;;;1.10;;
8803;SDS011;4438;50.890;4.726;2022-10-15T09:27:45;1.43;;;1.00;;
8803;SDS011;4438;50.890;4.726;2022-10-15T09:30:31;1.20;;;1.00;;
8803;SDS011;4438;50.890;4.726;2022-10-15T09:33:05;1.23;;;1.13;;
8803;SDS011;4438;50.890;4.726;2022-10-15T09:35:35;2.13;;;1.20;;
8803;SDS011;4438;50.890;4.726;2022-10-15T09:38:18;1.97;;;1.20;;
8803;SDS011;4438;50.890;4.726;2022-10-15T09:40:58;1.20;;;1.20;;
8803;SDS011;4438;50.890;4.726;2022-10-15T09:43:30;1.13;;;1.03;;
8803;SDS011;4438;50.890;4.726;2022-10-15T09:46:00;1.33;;;1.20;;
8803;SDS011;4438;50.890;4.726;2022-10-15T09:48:26;2.00;;;1.30;;
8803;SDS011;4438;50.890;4.726;2022-10-15T09:51:02;1.23;;;1.13;;
8803;SDS011;4438;50.890;4.726;2022-10-15T09:53:40;1.30;;;1.20;;
8803;SDS011;4438;50.890;4.726;2022-10-15T09:56:19;1.20;;;1.10;;
8803;SDS011;4438;50.890;4.726;2022-10-15T09:58:51;1.63;;;1.27;;
8803;SDS011;4438;50.890;4.726;2022-10-15T10:04:08;1.63;;;1.47;;
8803;SDS011;4438;50.890;4.726;2022-10-15T10:06:42;1.60;;;1.40;;
8803;SDS011;4438;50.890;4.726;2022-10-15T10:09:11;1.50;;;1.40;;
8803;SDS011;4438;50.890;4.726;2022-10-15T10:11:47;1.40;;;1.30;;
8803;SDS011;4438;50.890;4.726;2022-10-15T10:14:20;1.60;;;1.50;;
8803;SDS011;4438;50.890;4.726;2022-10-15T10:22:44;1.80;;;1.50;;
8803;SDS011;4438;50.890;4.726;2022-10-15T10:27:57;1.50;;;1.40;;
8803;SDS011;4438;50.890;4.726;2022-10-15T10:30:24;2.33;;;1.30;;
8803;SDS011;4438;50.890;4.726;2022-10-15T10:32:57;2.10;;;1.73;;
8803;SDS011;4438;50.890;4.726;2022-10-15T10:35:24;2.00;;;1.50;;
8803;SDS011;4438;50.890;4.726;2022-10-15T10:37:51;1.70;;;1.60;;
8803;SDS011;4438;50.890;4.726;2022-10-15T10:40:28;2.03;;;1.63;;
8803;SDS011;4438;50.890;4.726;2022-10-15T10:43:38;1.67;;;1.50;;
8803;SDS011;4438;50.890;4.726;2022-10-15T10:46:18;1.40;;;1.30;;
8803;SDS011;4438;50.890;4.726;2022-10-15T10:48:39;1.40;;;1.30;;
8803;SDS011;4438;50.890;4.726;2022-10-15T10:53:33;1.40;;;1.30;;
8803;SDS011;4438;50.890;4.726;2022-10-15T10:55:59;1.67;;;1.40;;
8803;SDS011;4438;50.890;4.726;2022-10-15T10:58:27;1.30;;;1.20;;
8803;SDS011;4438;50.890;4.726;2022-10-15T11:00:54;1.33;;;1.23;;
8803;SDS011;4438;50.890;4.726;2022-10-15T11:05:54;1.27;;;1.13;;
8803;SDS011;4438;50.890;4.726;2022-10-15T11:08:33;1.40;;;1.30;;
8803;SDS011;4438;50.890;4.726;2022-10-15T11:13:41;2.07;;;1.20;;
8803;SDS011;4438;50.890;4.726;2022-10-15T11:16:14;1.30;;;1.20;;
8803;SDS011;4438;50.890;4.726;2022-10-15T11:29:35;1.50;;;1.40;;
8803;SDS011;4438;50.890;4.726;2022-10-15T11:55:23;1.50;;;1.40;;
8803;SDS011;4438;50.890;4.726;2022-10-15T11:57:55;3.03;;;2.40;;
8803;SDS011;4438;50.890;4.726;2022-10-15T12:00:57;2.27;;;1.70;;
8803;SDS011;4438;50.890;4.726;2022-10-15T12:03:16;2.53;;;1.60;;
8803;SDS011;4438;50.890;4.726;2022-10-15T12:05:44;1.60;;;1.50;;
8803;SDS011;4438;50.890;4.726;2022-10-15T12:08:11;2.17;;;1.60;;
8803;SDS011;4438;50.890;4.726;2022-10-15T12:10:46;1.90;;;1.70;;
8803;SDS011;4438;50.890;4.726;2022-10-15T12:13:25;1.83;;;1.73;;
8803;SDS011;4438;50.890;4.726;2022-10-15T12:16:02;1.60;;;1.50;;
8803;SDS011;4438;50.890;4.726;2022-10-15T12:21:00;1.70;;;1.60;;
8803;SDS011;4438;50.890;4.726;2022-10-15T12:26:02;1.67;;;1.57;;
8803;SDS011;4438;50.890;4.726;2022-10-15T12:28:48;1.77;;;1.60;;
8803;SDS011;4438;50.890;4.726;2022-10-15T12:31:15;1.80;;;1.70;;
8803;SDS011;4438;50.890;4.726;2022-10-15T12:33:46;1.50;;;1.40;;
8803;SDS011;4438;50.890;4.726;2022-10-15T12:36:26;1.60;;;1.50;;
8803;SDS011;4438;50.890;4.726;2022-10-15T12:39:01;1.60;;;1.50;;
8803;SDS011;4438;50.890;4.726;2022-10-15T12:46:36;1.60;;;1.40;;
8803;SDS011;4438;50.890;4.726;2022-10-15T12:51:48;1.57;;;1.47;;
8803;SDS011;4438;50.890;4.726;2022-10-15T12:54:49;1.37;;;1.27;;
8803;SDS011;4438;50.890;4.726;2022-10-15T12:59:52;1.43;;;1.33;;
8803;SDS011;4438;50.890;4.726;2022-10-15T13:02:36;1.90;;;1.07;;
8803;SDS011;4438;50.890;4.726;2022-10-15T13:05:04;1.53;;;1.20;;
8803;SDS011;4438;50.890;4.726;2022-10-15T13:07:31;1.20;;;1.10;;
8803;SDS011;4438;50.890;4.726;2022-10-15T13:10:00;1.23;;;1.00;;
8803;SDS011;4438;50.890;4.726;2022-10-15T13:12:27;1.00;;;0.97;;
8803;SDS011;4438;50.890;4.726;2022-10-15T13:14:58;1.67;;;1.10;;
8803;SDS011;4438;50.890;4.726;2022-10-15T13:17:27;1.37;;;1.20;;
8803;SDS011;4438;50.890;4.726;2022-10-15T13:22:27;1.73;;;1.20;;
8803;SDS011;4438;50.890;4.726;2022-10-15T13:24:54;1.73;;;1.20;;
8803;SDS011;4438;50.890;4.726;2022-10-15T13:32:46;1.60;;;1.30;;
8803;SDS011;4438;50.890;4.726;2022-10-15T13:35:17;1.27;;;1.17;;
8803;SDS011;4438;50.890;4.726;2022-10-15T13:37:43;2.83;;;1.10;;
8803;SDS011;4438;50.890;4.726;2022-10-15T13:40:21;2.50;;;1.20;;
8803;SDS011;4438;50.890;4.726;2022-10-15T13:43:01;2.23;;;1.20;;
8803;SDS011;4438;50.890;4.726;2022-10-15T13:45:27;1.60;;;1.20;;
8803;SDS011;4438;50.890;4.726;2022-10-15T13:47:54;1.90;;;1.07;;
8803;SDS011;4438;50.890;4.726;2022-10-15T13:50:35;1.57;;;1.10;;
8803;SDS011;4438;50.890;4.726;2022-10-15T13:55:48;2.30;;;1.23;;
8803;SDS011;4438;50.890;4.726;2022-10-15T13:58:33;1.33;;;1.00;;
8803;SDS011;4438;50.890;4.726;2022-10-15T14:01:12;1.97;;;1.07;;
8803;SDS011;4438;50.890;4.726;2022-10-15T14:03:44;1.17;;;0.90;;
8803;SDS011;4438;50.890;4.726;2022-10-15T14:06:15;2.40;;;1.20;;
8803;SDS011;4438;50.890;4.726;2022-10-15T14:08:42;2.50;;;1.20;;
8803;SDS011;4438;50.890;4.726;2022-10-15T14:11:09;1.80;;;1.30;;
8803;SDS011;4438;50.890;4.726;2022-10-15T14:13:42;3.13;;;1.17;;
8803;SDS011;4438;50.890;4.726;2022-10-15T14:18:50;1.67;;;1.20;;
8803;SDS011;4438;50.890;4.726;2022-10-15T14:21:21;1.53;;;1.30;;
8803;SDS011;4438;50.890;4.726;2022-10-15T14:23:59;1.73;;;1.20;;
8803;SDS011;4438;50.890;4.726;2022-10-15T14:26:26;2.43;;;1.17;;
8803;SDS011;4438;50.890;4.726;2022-10-15T14:28:53;2.33;;;1.17;;
8803;SDS011;4438;50.890;4.726;2022-10-15T14:31:39;1.50;;;1.13;;
8803;SDS011;4438;50.890;4.726;2022-10-15T14:36:50;3.60;;;1.43;;
8803;SDS011;4438;50.890;4.726;2022-10-15T14:39:28;2.93;;;1.40;;
8803;SDS011;4438;50.890;4.726;2022-10-15T14:41:58;2.80;;;1.57;;
8803;SDS011;4438;50.890;4.726;2022-10-15T14:44:25;2.13;;;1.33;;
8803;SDS011;4438;50.890;4.726;2022-10-15T14:47:00;2.87;;;1.50;;
8803;SDS011;4438;50.890;4.726;2022-10-15T14:49:29;1.97;;;1.30;;
8803;SDS011;4438;50.890;4.726;2022-10-15T14:52:17;2.30;;;1.33;;
8803;SDS011;4438;50.890;4.726;2022-10-15T14:54:46;1.83;;;1.40;;
8803;SDS011;4438;50.890;4.726;2022-10-15T14:57:15;1.83;;;1.23;;
8803;SDS011;4438;50.890;4.726;2022-10-15T14:59:41;2.80;;;1.43;;
8803;SDS011;4438;50.890;4.726;2022-10-15T15:02:09;2.87;;;1.40;;
8803;SDS011;4438;50.890;4.726;2022-10-15T15:04:40;2.07;;;1.47;;
8803;SDS011;4438;50.890;4.726;2022-10-15T15:07:13;1.87;;;1.30;;
8803;SDS011;4438;50.890;4.726;2022-10-15T15:09:40;2.10;;;1.10;;
8803;SDS011;4438;50.890;4.726;2022-10-15T15:12:09;3.97;;;1.50;;
8803;SDS011;4438;50.890;4.726;2022-10-15T15:14:37;2.53;;;1.33;;
8803;SDS011;4438;50.890;4.726;2022-10-15T15:17:04;3.10;;;1.33;;
8803;SDS011;4438;50.890;4.726;2022-10-15T15:19:30;2.37;;;1.40;;
8803;SDS011;4438;50.890;4.726;2022-10-15T15:21:56;2.33;;;1.20;;
8803;SDS011;4438;50.890;4.726;2022-10-15T15:24:22;3.13;;;1.40;;
8803;SDS011;4438;50.890;4.726;2022-10-15T15:26:48;2.17;;;1.30;;
8803;SDS011;4438;50.890;4.726;2022-10-15T15:29:14;2.17;;;1.23;;
8803;SDS011;4438;50.890;4.726;2022-10-15T15:31:40;2.23;;;1.60;;
8803;SDS011;4438;50.890;4.726;2022-10-15T15:34:06;2.03;;;1.20;;
8803;SDS011;4438;50.890;4.726;2022-10-15T15:36:32;3.60;;;1.40;;
8803;SDS011;4438;50.890;4.726;2022-10-15T15:38:58;2.60;;;1.37;;
8803;SDS011;4438;50.890;4.726;2022-10-15T15:41:24;3.83;;;1.70;;
8803;SDS011;4438;50.890;4.726;2022-10-15T15:43:51;2.50;;;1.70;;
8803;SDS011;4438;50.890;4.726;2022-10-15T15:46:19;1.77;;;1.40;;
8803;SDS011;4438;50.890;4.726;2022-10-15T15:48:45;3.47;;;1.43;;
8803;SDS011;4438;50.890;4.726;2022-10-15T15:53:37;2.07;;;1.40;;
8803;SDS011;4438;50.890;4.726;2022-10-15T15:56:03;4.00;;;1.47;;
8803;SDS011;4438;50.890;4.726;2022-10-15T15:58:38;3.07;;;1.40;;
8803;SDS011;4438;50.890;4.726;2022-10-15T16:01:04;3.87;;;1.80;;
8803;SDS011;4438;50.890;4.726;2022-10-15T16:03:30;3.67;;;1.90;;
8803;SDS011;4438;50.890;4.726;2022-10-15T16:05:56;4.33;;;1.60;;
8803;SDS011;4438;50.890;4.726;2022-10-15T16:08:22;3.20;;;1.63;;
8803;SDS011;4438;50.890;4.726;2022-10-15T16:10:48;3.37;;;1.83;;
8803;SDS011;4438;50.890;4.726;2022-10-15T16:13:14;3.50;;;1.60;;
8803;SDS011;4438;50.890;4.726;2022-10-15T16:15:40;2.97;;;1.60;;
8803;SDS011;4438;50.890;4.726;2022-10-15T16:18:07;2.40;;;1.70;;
8803;SDS011;4438;50.890;4.726;2022-10-15T16:20:33;3.10;;;1.40;;
8803;SDS011;4438;50.890;4.726;2022-10-15T16:23:03;5.73;;;1.73;;
8803;SDS011;4438;50.890;4.726;2022-10-15T16:25:29;3.40;;;2.10;;
8803;SDS011;4438;50.890;4.726;2022-10-15T16:27:55;3.60;;;2.37;;
8803;SDS011;4438;50.890;4.726;2022-10-15T16:30:23;2.67;;;1.77;;
8803;SDS011;4438;50.890;4.726;2022-10-15T16:32:49;4.83;;;2.00;;
8803;SDS011;4438;50.890;4.726;2022-10-15T16:35:15;4.20;;;1.93;;
8803;SDS011;4438;50.890;4.726;2022-10-15T16:37:41;2.40;;;1.70;;
8803;SDS011;4438;50.890;4.726;2022-10-15T16:40:09;2.10;;;1.63;;
8803;SDS011;4438;50.890;4.726;2022-10-15T16:42:35;3.80;;;1.80;;
8803;SDS011;4438;50.890;4.726;2022-10-15T16:45:02;3.50;;;1.80;;
8803;SDS011;4438;50.890;4.726;2022-10-15T16:47:28;4.07;;;1.70;;
8803;SDS011;4438;50.890;4.726;2022-10-15T16:49:54;3.80;;;1.63;;
8803;SDS011;4438;50.890;4.726;2022-10-15T16:52:20;3.40;;;1.70;;
8803;SDS011;4438;50.890;4.726;2022-10-15T16:54:46;3.23;;;2.20;;
8803;SDS011;4438;50.890;4.726;2022-10-15T16:57:12;3.07;;;1.90;;
8803;SDS011;4438;50.890;4.726;2022-10-15T16:59:39;3.87;;;1.60;;
8803;SDS011;4438;50.890;4.726;2022-10-15T17:02:05;3.33;;;1.87;;
8803;SDS011;4438;50.890;4.726;2022-10-15T17:04:31;2.87;;;1.57;;
8803;SDS011;4438;50.890;4.726;2022-10-15T17:06:57;6.40;;;3.37;;
8803;SDS011;4438;50.890;4.726;2022-10-15T17:09:23;3.77;;;2.30;;
8803;SDS011;4438;50.890;4.726;2022-10-15T17:11:49;2.83;;;2.13;;